sensor_id;sensor_type;location;lat;lon;timestamp;P1;durP1;ratioP1;P2;durP2;ratioP2
6412;SDS011;3239;48.714;9.472;2022-12-04T00:00:21;25.77;;;15.97;;
6412;SDS011;3239;48.714;9.472;2022-12-04T00:02:47;27.30;;;16.43;;
6412;SDS011;3239;48.714;9.472;2022-12-04T00:05:13;28.13;;;16.53;;
6412;SDS011;3239;48.714;9.472;2022-12-04T00:07:38;32.07;;;16.50;;
6412;SDS011;3239;48.714;9.472;2022-12-04T00:10:04;26.87;;;16.33;;
6412;SDS011;3239;48.714;9.472;2022-12-04T00:12:31;28.60;;;15.93;;
6412;SDS011;3239;48.714;9.472;2022-12-04T00:14:58;26.33;;;16.03;;
6412;SDS011;3239;48.714;9.472;2022-12-04T00:17:24;28.40;;;16.80;;
6412;SDS011;3239;48.714;9.472;2022-12-04T00:19:49;26.87;;;15.97;;
6412;SDS011;3239;48.714;9.472;2022-12-04T00:22:15;33.83;;;17.80;;
6412;SDS011;3239;48.714;9.472;2022-12-04T00:24:41;27.03;;;15.77;;
6412;SDS011;3239;48.714;9.472;2022-12-04T00:27:07;24.70;;;14.93;;
6412;SDS011;3239;48.714;9.472;2022-12-04T00:29:32;24.43;;;16.10;;
6412;SDS011;3239;48.714;9.472;2022-12-04T00:31:58;30.03;;;16.70;;
6412;SDS011;3239;48.714;9.472;2022-12-04T00:34:24;25.73;;;16.07;;
6412;SDS011;3239;48.714;9.472;2022-12-04T00:36:50;27.53;;;16.63;;
6412;SDS011;3239;48.714;9.472;2022-12-04T00:39:15;29.67;;;17.00;;
6412;SDS011;3239;48.714;9.472;2022-12-04T00:41:41;29.23;;;17.27;;
6412;SDS011;3239;48.714;9.472;2022-12-04T00:44:07;29.13;;;17.93;;
6412;SDS011;3239;48.714;9.472;2022-12-04T00:46:32;30.20;;;16.97;;
6412;SDS011;3239;48.714;9.472;2022-12-04T00:48:58;30.67;;;17.60;;
6412;SDS011;3239;48.714;9.472;2022-12-04T00:51:27;28.43;;;16.60;;
6412;SDS011;3239;48.714;9.472;2022-12-04T00:53:52;32.63;;;18.93;;
6412;SDS011;3239;48.714;9.472;2022-12-04T00:56:21;32.03;;;18.07;;
6412;SDS011;3239;48.714;9.472;2022-12-04T00:58:54;32.53;;;19.53;;
6412;SDS011;3239;48.714;9.472;2022-12-04T01:01:23;36.17;;;19.43;;
6412;SDS011;3239;48.714;9.472;2022-12-04T01:03:50;34.93;;;20.23;;
6412;SDS011;3239;48.714;9.472;2022-12-04T01:08:52;34.00;;;20.37;;
6412;SDS011;3239;48.714;9.472;2022-12-04T01:11:20;34.77;;;19.97;;
6412;SDS011;3239;48.714;9.472;2022-12-04T01:13:47;32.40;;;19.67;;
6412;SDS011;3239;48.714;9.472;2022-12-04T01:16:24;36.50;;;21.00;;
6412;SDS011;3239;48.714;9.472;2022-12-04T01:18:54;39.23;;;19.57;;
6412;SDS011;3239;48.714;9.472;2022-12-04T01:21:20;36.50;;;20.50;;
6412;SDS011;3239;48.714;9.472;2022-12-04T01:23:46;37.67;;;20.00;;
6412;SDS011;3239;48.714;9.472;2022-12-04T01:26:12;34.77;;;18.97;;
6412;SDS011;3239;48.714;9.472;2022-12-04T01:28:38;35.13;;;20.20;;
6412;SDS011;3239;48.714;9.472;2022-12-04T01:31:06;33.93;;;18.00;;
6412;SDS011;3239;48.714;9.472;2022-12-04T01:33:37;36.93;;;18.47;;
6412;SDS011;3239;48.714;9.472;2022-12-04T01:36:05;33.90;;;17.00;;
6412;SDS011;3239;48.714;9.472;2022-12-04T01:38:35;34.43;;;18.03;;
6412;SDS011;3239;48.714;9.472;2022-12-04T01:41:02;34.60;;;18.00;;
6412;SDS011;3239;48.714;9.472;2022-12-04T01:43:29;32.23;;;15.67;;
6412;SDS011;3239;48.714;9.472;2022-12-04T01:45:57;27.63;;;15.43;;
6412;SDS011;3239;48.714;9.472;2022-12-04T01:51:09;29.80;;;15.60;;
6412;SDS011;3239;48.714;9.472;2022-12-04T01:53:52;27.37;;;14.60;;
6412;SDS011;3239;48.714;9.472;2022-12-04T01:56:24;26.43;;;13.90;;
6412;SDS011;3239;48.714;9.472;2022-12-04T01:59:03;25.17;;;14.03;;
6412;SDS011;3239;48.714;9.472;2022-12-04T02:01:33;23.87;;;12.80;;
6412;SDS011;3239;48.714;9.472;2022-12-04T02:04:10;29.57;;;14.80;;
6412;SDS011;3239;48.714;9.472;2022-12-04T02:06:35;23.10;;;12.73;;
6412;SDS011;3239;48.714;9.472;2022-12-04T02:09:01;24.20;;;13.40;;
6412;SDS011;3239;48.714;9.472;2022-12-04T02:17:05;25.20;;;13.77;;
6412;SDS011;3239;48.714;9.472;2022-12-04T02:28:58;25.13;;;12.80;;
6412;SDS011;3239;48.714;9.472;2022-12-04T02:31:33;22.10;;;12.80;;
6412;SDS011;3239;48.714;9.472;2022-12-04T02:34:06;25.67;;;13.40;;
6412;SDS011;3239;48.714;9.472;2022-12-04T02:36:47;27.77;;;13.50;;
6412;SDS011;3239;48.714;9.472;2022-12-04T02:41:56;21.70;;;12.80;;
6412;SDS011;3239;48.714;9.472;2022-12-04T02:45:23;22.57;;;12.70;;
6412;SDS011;3239;48.714;9.472;2022-12-04T02:47:33;21.10;;;12.10;;
6412;SDS011;3239;48.714;9.472;2022-12-04T02:50:04;25.33;;;13.13;;
6412;SDS011;3239;48.714;9.472;2022-12-04T02:52:51;20.97;;;12.50;;
6412;SDS011;3239;48.714;9.472;2022-12-04T02:55:28;22.53;;;11.90;;
6412;SDS011;3239;48.714;9.472;2022-12-04T02:58:03;23.07;;;13.03;;
6412;SDS011;3239;48.714;9.472;2022-12-04T03:00:35;22.90;;;11.57;;
6412;SDS011;3239;48.714;9.472;2022-12-04T03:03:12;23.77;;;12.70;;
6412;SDS011;3239;48.714;9.472;2022-12-04T03:05:55;22.60;;;11.93;;
6412;SDS011;3239;48.714;9.472;2022-12-04T03:08:33;22.30;;;11.23;;
6412;SDS011;3239;48.714;9.472;2022-12-04T03:11:06;23.63;;;12.70;;
6412;SDS011;3239;48.714;9.472;2022-12-04T03:16:24;23.23;;;12.20;;
6412;SDS011;3239;48.714;9.472;2022-12-04T03:19:04;24.50;;;12.57;;
6412;SDS011;3239;48.714;9.472;2022-12-04T03:21:39;19.40;;;12.20;;
6412;SDS011;3239;48.714;9.472;2022-12-04T03:24:14;20.97;;;12.30;;
6412;SDS011;3239;48.714;9.472;2022-12-04T03:27:33;20.70;;;11.03;;
6412;SDS011;3239;48.714;9.472;2022-12-04T03:30:14;21.27;;;11.43;;
6412;SDS011;3239;48.714;9.472;2022-12-04T03:35:35;20.50;;;12.13;;
6412;SDS011;3239;48.714;9.472;2022-12-04T03:38:04;20.00;;;11.43;;
6412;SDS011;3239;48.714;9.472;2022-12-04T03:46:23;23.53;;;11.97;;
6412;SDS011;3239;48.714;9.472;2022-12-04T03:49:19;23.80;;;11.90;;
6412;SDS011;3239;48.714;9.472;2022-12-04T03:52:16;25.30;;;12.93;;
6412;SDS011;3239;48.714;9.472;2022-12-04T03:54:58;24.67;;;13.13;;
6412;SDS011;3239;48.714;9.472;2022-12-04T03:57:40;22.93;;;12.07;;
6412;SDS011;3239;48.714;9.472;2022-12-04T04:00:10;22.27;;;11.80;;
6412;SDS011;3239;48.714;9.472;2022-12-04T04:03:10;19.80;;;11.50;;
6412;SDS011;3239;48.714;9.472;2022-12-04T04:05:48;27.43;;;13.40;;
6412;SDS011;3239;48.714;9.472;2022-12-04T04:08:20;21.53;;;12.03;;
6412;SDS011;3239;48.714;9.472;2022-12-04T04:10:51;19.33;;;10.63;;
6412;SDS011;3239;48.714;9.472;2022-12-04T04:13:29;22.53;;;11.33;;
6412;SDS011;3239;48.714;9.472;2022-12-04T04:16:21;22.60;;;12.27;;
6412;SDS011;3239;48.714;9.472;2022-12-04T04:19:10;17.90;;;10.37;;
6412;SDS011;3239;48.714;9.472;2022-12-04T04:21:59;22.70;;;12.50;;
6412;SDS011;3239;48.714;9.472;2022-12-04T04:24:54;25.37;;;12.53;;
6412;SDS011;3239;48.714;9.472;2022-12-04T04:27:28;22.00;;;12.17;;
6412;SDS011;3239;48.714;9.472;2022-12-04T04:29:54;26.77;;;12.00;;
6412;SDS011;3239;48.714;9.472;2022-12-04T04:43:57;22.90;;;11.27;;
6412;SDS011;3239;48.714;9.472;2022-12-04T04:46:51;20.20;;;11.50;;
6412;SDS011;3239;48.714;9.472;2022-12-04T04:49:24;22.60;;;11.40;;
6412;SDS011;3239;48.714;9.472;2022-12-04T04:51:56;19.30;;;11.30;;
6412;SDS011;3239;48.714;9.472;2022-12-04T04:54:22;20.03;;;11.07;;
6412;SDS011;3239;48.714;9.472;2022-12-04T04:56:49;18.73;;;11.60;;
6412;SDS011;3239;48.714;9.472;2022-12-04T04:59:15;19.43;;;10.70;;
6412;SDS011;3239;48.714;9.472;2022-12-04T05:01:42;25.83;;;12.53;;
6412;SDS011;3239;48.714;9.472;2022-12-04T05:04:10;19.40;;;11.07;;
6412;SDS011;3239;48.714;9.472;2022-12-04T05:06:36;22.10;;;11.43;;
6412;SDS011;3239;48.714;9.472;2022-12-04T05:09:02;17.97;;;10.97;;
6412;SDS011;3239;48.714;9.472;2022-12-04T05:11:29;20.67;;;11.60;;
6412;SDS011;3239;48.714;9.472;2022-12-04T05:13:55;19.70;;;11.30;;
6412;SDS011;3239;48.714;9.472;2022-12-04T05:16:20;21.83;;;11.70;;
6412;SDS011;3239;48.714;9.472;2022-12-04T05:18:46;19.90;;;10.97;;
6412;SDS011;3239;48.714;9.472;2022-12-04T05:21:31;17.00;;;10.20;;
6412;SDS011;3239;48.714;9.472;2022-12-04T05:23:58;21.63;;;11.57;;
6412;SDS011;3239;48.714;9.472;2022-12-04T05:26:24;20.90;;;10.70;;
6412;SDS011;3239;48.714;9.472;2022-12-04T05:28:50;20.27;;;11.60;;
6412;SDS011;3239;48.714;9.472;2022-12-04T05:31:16;23.30;;;12.30;;
6412;SDS011;3239;48.714;9.472;2022-12-04T05:33:42;19.70;;;11.50;;
6412;SDS011;3239;48.714;9.472;2022-12-04T05:36:08;20.40;;;11.40;;
6412;SDS011;3239;48.714;9.472;2022-12-04T05:38:37;17.47;;;10.47;;
6412;SDS011;3239;48.714;9.472;2022-12-04T05:41:04;21.70;;;11.40;;
6412;SDS011;3239;48.714;9.472;2022-12-04T05:43:30;18.63;;;10.70;;
6412;SDS011;3239;48.714;9.472;2022-12-04T05:46:04;17.20;;;10.80;;
6412;SDS011;3239;48.714;9.472;2022-12-04T05:48:32;22.07;;;11.67;;
6412;SDS011;3239;48.714;9.472;2022-12-04T05:50:59;22.20;;;11.20;;
6412;SDS011;3239;48.714;9.472;2022-12-04T05:53:30;21.87;;;11.57;;
6412;SDS011;3239;48.714;9.472;2022-12-04T05:55:56;18.23;;;10.43;;
6412;SDS011;3239;48.714;9.472;2022-12-04T05:58:23;17.40;;;9.77;;
6412;SDS011;3239;48.714;9.472;2022-12-04T06:00:49;18.17;;;10.60;;
6412;SDS011;3239;48.714;9.472;2022-12-04T06:03:15;17.30;;;10.00;;
6412;SDS011;3239;48.714;9.472;2022-12-04T06:05:42;17.30;;;10.67;;
6412;SDS011;3239;48.714;9.472;2022-12-04T06:08:07;17.43;;;10.50;;
6412;SDS011;3239;48.714;9.472;2022-12-04T06:10:33;20.10;;;11.87;;
6412;SDS011;3239;48.714;9.472;2022-12-04T06:12:59;20.70;;;10.60;;
6412;SDS011;3239;48.714;9.472;2022-12-04T06:15:25;18.80;;;10.80;;
6412;SDS011;3239;48.714;9.472;2022-12-04T06:17:51;18.90;;;10.33;;
6412;SDS011;3239;48.714;9.472;2022-12-04T06:20:17;17.83;;;10.97;;
6412;SDS011;3239;48.714;9.472;2022-12-04T06:22:43;16.27;;;9.90;;
6412;SDS011;3239;48.714;9.472;2022-12-04T06:25:09;16.97;;;9.80;;
6412;SDS011;3239;48.714;9.472;2022-12-04T06:27:35;17.93;;;10.10;;
6412;SDS011;3239;48.714;9.472;2022-12-04T06:30:00;18.50;;;10.37;;
6412;SDS011;3239;48.714;9.472;2022-12-04T06:32:26;17.00;;;9.30;;
6412;SDS011;3239;48.714;9.472;2022-12-04T06:34:53;18.30;;;10.33;;
6412;SDS011;3239;48.714;9.472;2022-12-04T06:37:20;17.33;;;9.60;;
6412;SDS011;3239;48.714;9.472;2022-12-04T06:39:48;22.80;;;10.60;;
6412;SDS011;3239;48.714;9.472;2022-12-04T06:42:14;18.50;;;11.13;;
6412;SDS011;3239;48.714;9.472;2022-12-04T06:44:39;16.40;;;10.53;;
6412;SDS011;3239;48.714;9.472;2022-12-04T06:47:05;20.33;;;10.97;;
6412;SDS011;3239;48.714;9.472;2022-12-04T06:49:32;18.23;;;10.87;;
6412;SDS011;3239;48.714;9.472;2022-12-04T06:51:57;19.63;;;11.97;;
6412;SDS011;3239;48.714;9.472;2022-12-04T06:54:23;13.67;;;9.13;;
6412;SDS011;3239;48.714;9.472;2022-12-04T06:56:50;14.93;;;9.70;;
6412;SDS011;3239;48.714;9.472;2022-12-04T06:59:16;17.97;;;10.40;;
6412;SDS011;3239;48.714;9.472;2022-12-04T07:01:42;18.50;;;11.40;;
6412;SDS011;3239;48.714;9.472;2022-12-04T07:04:07;16.53;;;9.97;;
6412;SDS011;3239;48.714;9.472;2022-12-04T07:06:34;20.20;;;10.17;;
6412;SDS011;3239;48.714;9.472;2022-12-04T07:09:06;15.03;;;9.13;;
6412;SDS011;3239;48.714;9.472;2022-12-04T07:11:36;24.10;;;11.20;;
6412;SDS011;3239;48.714;9.472;2022-12-04T07:14:04;18.57;;;10.17;;
6412;SDS011;3239;48.714;9.472;2022-12-04T07:16:30;17.87;;;10.10;;
6412;SDS011;3239;48.714;9.472;2022-12-04T07:18:56;17.07;;;9.70;;
6412;SDS011;3239;48.714;9.472;2022-12-04T07:21:26;17.37;;;10.10;;
6412;SDS011;3239;48.714;9.472;2022-12-04T07:23:55;17.37;;;10.10;;
6412;SDS011;3239;48.714;9.472;2022-12-04T07:26:24;15.50;;;9.97;;
6412;SDS011;3239;48.714;9.472;2022-12-04T07:28:52;24.63;;;11.10;;
6412;SDS011;3239;48.714;9.472;2022-12-04T07:31:19;18.43;;;10.17;;
6412;SDS011;3239;48.714;9.472;2022-12-04T07:33:47;18.17;;;9.83;;
6412;SDS011;3239;48.714;9.472;2022-12-04T07:36:14;17.60;;;10.80;;
6412;SDS011;3239;48.714;9.472;2022-12-04T07:38:43;18.47;;;10.50;;
6412;SDS011;3239;48.714;9.472;2022-12-04T07:41:10;15.43;;;10.00;;
6412;SDS011;3239;48.714;9.472;2022-12-04T07:43:37;20.37;;;12.63;;
6412;SDS011;3239;48.714;9.472;2022-12-04T07:46:04;17.67;;;10.67;;
6412;SDS011;3239;48.714;9.472;2022-12-04T07:48:36;19.67;;;11.70;;
6412;SDS011;3239;48.714;9.472;2022-12-04T07:51:02;17.43;;;10.90;;
6412;SDS011;3239;48.714;9.472;2022-12-04T07:53:34;17.80;;;10.83;;
6412;SDS011;3239;48.714;9.472;2022-12-04T07:56:01;20.80;;;11.80;;
6412;SDS011;3239;48.714;9.472;2022-12-04T07:58:29;20.27;;;11.53;;
6412;SDS011;3239;48.714;9.472;2022-12-04T08:01:03;16.60;;;10.23;;
6412;SDS011;3239;48.714;9.472;2022-12-04T08:03:40;17.13;;;10.67;;
6412;SDS011;3239;48.714;9.472;2022-12-04T08:06:08;19.37;;;11.13;;
6412;SDS011;3239;48.714;9.472;2022-12-04T08:08:34;18.53;;;11.87;;
6412;SDS011;3239;48.714;9.472;2022-12-04T08:11:00;22.30;;;10.93;;
6412;SDS011;3239;48.714;9.472;2022-12-04T08:13:30;19.87;;;12.60;;
6412;SDS011;3239;48.714;9.472;2022-12-04T08:15:55;20.23;;;12.83;;
6412;SDS011;3239;48.714;9.472;2022-12-04T08:18:21;24.37;;;14.90;;
6412;SDS011;3239;48.714;9.472;2022-12-04T08:20:47;23.17;;;13.77;;
6412;SDS011;3239;48.714;9.472;2022-12-04T08:23:12;17.77;;;11.83;;
6412;SDS011;3239;48.714;9.472;2022-12-04T08:25:39;23.63;;;12.47;;
6412;SDS011;3239;48.714;9.472;2022-12-04T08:28:05;18.47;;;11.43;;
6412;SDS011;3239;48.714;9.472;2022-12-04T08:30:32;19.20;;;11.20;;
6412;SDS011;3239;48.714;9.472;2022-12-04T08:32:58;18.87;;;12.60;;
6412;SDS011;3239;48.714;9.472;2022-12-04T08:35:24;27.67;;;14.10;;
6412;SDS011;3239;48.714;9.472;2022-12-04T08:37:50;23.53;;;13.17;;
6412;SDS011;3239;48.714;9.472;2022-12-04T08:40:15;21.53;;;12.07;;
6412;SDS011;3239;48.714;9.472;2022-12-04T08:42:41;20.47;;;12.20;;
6412;SDS011;3239;48.714;9.472;2022-12-04T08:45:07;19.43;;;11.63;;
6412;SDS011;3239;48.714;9.472;2022-12-04T08:47:34;18.50;;;11.17;;
6412;SDS011;3239;48.714;9.472;2022-12-04T08:50:00;19.53;;;12.00;;
6412;SDS011;3239;48.714;9.472;2022-12-04T08:52:26;24.90;;;14.13;;
6412;SDS011;3239;48.714;9.472;2022-12-04T08:54:51;23.83;;;13.70;;
6412;SDS011;3239;48.714;9.472;2022-12-04T08:57:17;20.03;;;12.80;;
6412;SDS011;3239;48.714;9.472;2022-12-04T08:59:43;23.10;;;13.50;;
6412;SDS011;3239;48.714;9.472;2022-12-04T09:02:11;20.70;;;13.40;;
6412;SDS011;3239;48.714;9.472;2022-12-04T09:04:37;19.73;;;12.73;;
6412;SDS011;3239;48.714;9.472;2022-12-04T09:07:03;24.13;;;14.10;;
6412;SDS011;3239;48.714;9.472;2022-12-04T09:09:29;20.67;;;12.47;;
6412;SDS011;3239;48.714;9.472;2022-12-04T09:11:54;23.77;;;14.63;;
6412;SDS011;3239;48.714;9.472;2022-12-04T09:14:20;23.87;;;14.20;;
6412;SDS011;3239;48.714;9.472;2022-12-04T09:16:50;24.83;;;15.00;;
6412;SDS011;3239;48.714;9.472;2022-12-04T09:19:17;23.67;;;12.40;;
6412;SDS011;3239;48.714;9.472;2022-12-04T09:21:43;21.30;;;13.80;;
6412;SDS011;3239;48.714;9.472;2022-12-04T09:24:09;21.97;;;11.97;;
6412;SDS011;3239;48.714;9.472;2022-12-04T09:26:35;19.00;;;12.10;;
6412;SDS011;3239;48.714;9.472;2022-12-04T09:29:01;20.23;;;12.47;;
6412;SDS011;3239;48.714;9.472;2022-12-04T09:31:29;20.60;;;12.13;;
6412;SDS011;3239;48.714;9.472;2022-12-04T09:33:59;18.53;;;11.60;;
6412;SDS011;3239;48.714;9.472;2022-12-04T09:36:26;17.30;;;11.60;;
6412;SDS011;3239;48.714;9.472;2022-12-04T09:38:52;15.80;;;10.77;;
6412;SDS011;3239;48.714;9.472;2022-12-04T09:44:24;19.37;;;11.73;;
6412;SDS011;3239;48.714;9.472;2022-12-04T09:49:35;19.63;;;12.70;;
6412;SDS011;3239;48.714;9.472;2022-12-04T09:55:36;20.30;;;12.73;;
6412;SDS011;3239;48.714;9.472;2022-12-04T10:01:31;18.20;;;10.73;;
6412;SDS011;3239;48.714;9.472;2022-12-04T10:04:07;21.87;;;11.60;;
6412;SDS011;3239;48.714;9.472;2022-12-04T10:06:38;19.03;;;11.60;;
6412;SDS011;3239;48.714;9.472;2022-12-04T10:09:31;21.30;;;13.30;;
6412;SDS011;3239;48.714;9.472;2022-12-04T10:18:22;18.83;;;11.40;;
6412;SDS011;3239;48.714;9.472;2022-12-04T10:21:29;18.37;;;11.73;;
6412;SDS011;3239;48.714;9.472;2022-12-04T10:25:00;18.70;;;12.00;;
6412;SDS011;3239;48.714;9.472;2022-12-04T10:27:43;27.87;;;14.73;;
6412;SDS011;3239;48.714;9.472;2022-12-04T10:30:22;19.40;;;11.63;;
6412;SDS011;3239;48.714;9.472;2022-12-04T10:32:56;19.17;;;12.10;;
6412;SDS011;3239;48.714;9.472;2022-12-04T10:35:41;18.50;;;11.07;;
6412;SDS011;3239;48.714;9.472;2022-12-04T10:38:11;22.60;;;11.90;;
6412;SDS011;3239;48.714;9.472;2022-12-04T10:41:14;25.60;;;13.97;;
6412;SDS011;3239;48.714;9.472;2022-12-04T10:44:21;22.00;;;12.10;;
6412;SDS011;3239;48.714;9.472;2022-12-04T10:46:48;25.27;;;14.27;;
6412;SDS011;3239;48.714;9.472;2022-12-04T10:49:22;31.80;;;15.93;;
6412;SDS011;3239;48.714;9.472;2022-12-04T10:51:54;31.50;;;16.30;;
6412;SDS011;3239;48.714;9.472;2022-12-04T10:57:02;23.23;;;14.00;;
6412;SDS011;3239;48.714;9.472;2022-12-04T10:59:31;22.80;;;14.23;;
6412;SDS011;3239;48.714;9.472;2022-12-04T11:01:58;24.30;;;11.57;;
6412;SDS011;3239;48.714;9.472;2022-12-04T11:04:40;19.90;;;11.77;;
6412;SDS011;3239;48.714;9.472;2022-12-04T11:07:07;21.87;;;13.27;;
6412;SDS011;3239;48.714;9.472;2022-12-04T11:09:53;18.60;;;10.93;;
6412;SDS011;3239;48.714;9.472;2022-12-04T11:12:58;16.10;;;11.20;;
6412;SDS011;3239;48.714;9.472;2022-12-04T11:15:46;19.63;;;11.10;;
6412;SDS011;3239;48.714;9.472;2022-12-04T11:20:48;18.37;;;11.80;;
6412;SDS011;3239;48.714;9.472;2022-12-04T11:23:17;17.90;;;12.20;;
6412;SDS011;3239;48.714;9.472;2022-12-04T11:25:45;19.90;;;11.13;;
6412;SDS011;3239;48.714;9.472;2022-12-04T11:28:18;16.47;;;11.70;;
6412;SDS011;3239;48.714;9.472;2022-12-04T11:30:51;21.13;;;13.30;;
6412;SDS011;3239;48.714;9.472;2022-12-04T11:36:17;19.13;;;11.80;;
6412;SDS011;3239;48.714;9.472;2022-12-04T11:38:46;17.43;;;11.40;;
6412;SDS011;3239;48.714;9.472;2022-12-04T11:41:27;18.03;;;11.73;;
6412;SDS011;3239;48.714;9.472;2022-12-04T11:43:56;19.40;;;12.00;;
6412;SDS011;3239;48.714;9.472;2022-12-04T11:46:23;22.30;;;13.17;;
6412;SDS011;3239;48.714;9.472;2022-12-04T11:48:53;22.60;;;12.83;;
6412;SDS011;3239;48.714;9.472;2022-12-04T11:51:22;16.63;;;10.47;;
6412;SDS011;3239;48.714;9.472;2022-12-04T11:54:26;16.00;;;10.83;;
6412;SDS011;3239;48.714;9.472;2022-12-04T11:57:26;17.00;;;11.00;;
6412;SDS011;3239;48.714;9.472;2022-12-04T12:00:24;19.17;;;12.20;;
6412;SDS011;3239;48.714;9.472;2022-12-04T12:03:34;16.40;;;9.83;;
6412;SDS011;3239;48.714;9.472;2022-12-04T12:14:03;20.90;;;11.83;;
6412;SDS011;3239;48.714;9.472;2022-12-04T12:16:58;17.30;;;10.10;;
6412;SDS011;3239;48.714;9.472;2022-12-04T12:20:16;18.10;;;11.87;;
6412;SDS011;3239;48.714;9.472;2022-12-04T12:23:01;17.87;;;10.73;;
6412;SDS011;3239;48.714;9.472;2022-12-04T12:26:18;19.13;;;11.40;;
6412;SDS011;3239;48.714;9.472;2022-12-04T12:34:04;16.67;;;11.40;;
6412;SDS011;3239;48.714;9.472;2022-12-04T12:36:38;16.53;;;11.47;;
6412;SDS011;3239;48.714;9.472;2022-12-04T12:39:15;19.90;;;12.03;;
6412;SDS011;3239;48.714;9.472;2022-12-04T12:41:49;16.50;;;10.37;;
6412;SDS011;3239;48.714;9.472;2022-12-04T12:44:23;17.33;;;10.50;;
6412;SDS011;3239;48.714;9.472;2022-12-04T12:47:16;18.10;;;12.10;;
6412;SDS011;3239;48.714;9.472;2022-12-04T12:49:47;17.80;;;11.43;;
6412;SDS011;3239;48.714;9.472;2022-12-04T12:52:33;16.37;;;10.10;;
6412;SDS011;3239;48.714;9.472;2022-12-04T12:55:20;15.20;;;10.10;;
6412;SDS011;3239;48.714;9.472;2022-12-04T12:58:13;14.43;;;9.70;;
6412;SDS011;3239;48.714;9.472;2022-12-04T13:01:29;16.60;;;10.13;;
6412;SDS011;3239;48.714;9.472;2022-12-04T13:04:22;16.43;;;10.50;;
6412;SDS011;3239;48.714;9.472;2022-12-04T13:07:20;14.83;;;9.60;;
6412;SDS011;3239;48.714;9.472;2022-12-04T13:10:11;14.57;;;10.23;;
6412;SDS011;3239;48.714;9.472;2022-12-04T13:12:50;16.50;;;10.23;;
6412;SDS011;3239;48.714;9.472;2022-12-04T13:15:43;17.20;;;10.40;;
6412;SDS011;3239;48.714;9.472;2022-12-04T13:18:25;17.33;;;9.97;;
6412;SDS011;3239;48.714;9.472;2022-12-04T13:21:03;14.20;;;9.57;;
6412;SDS011;3239;48.714;9.472;2022-12-04T13:31:53;17.43;;;10.70;;
6412;SDS011;3239;48.714;9.472;2022-12-04T13:35:00;15.20;;;9.93;;
6412;SDS011;3239;48.714;9.472;2022-12-04T13:38:04;19.47;;;11.27;;
6412;SDS011;3239;48.714;9.472;2022-12-04T13:40:45;17.20;;;11.37;;
6412;SDS011;3239;48.714;9.472;2022-12-04T13:43:23;16.50;;;11.57;;
6412;SDS011;3239;48.714;9.472;2022-12-04T13:45:57;19.87;;;12.00;;
6412;SDS011;3239;48.714;9.472;2022-12-04T13:48:40;19.60;;;12.63;;
6412;SDS011;3239;48.714;9.472;2022-12-04T13:53:39;22.13;;;13.10;;
6412;SDS011;3239;48.714;9.472;2022-12-04T13:56:07;20.10;;;12.83;;
6412;SDS011;3239;48.714;9.472;2022-12-04T13:59:03;21.80;;;12.70;;
6412;SDS011;3239;48.714;9.472;2022-12-04T14:01:56;23.03;;;14.23;;
6412;SDS011;3239;48.714;9.472;2022-12-04T14:04:25;21.93;;;13.37;;
6412;SDS011;3239;48.714;9.472;2022-12-04T14:07:23;20.57;;;12.63;;
6412;SDS011;3239;48.714;9.472;2022-12-04T14:10:22;23.67;;;13.77;;
6412;SDS011;3239;48.714;9.472;2022-12-04T14:12:58;23.30;;;12.90;;
6412;SDS011;3239;48.714;9.472;2022-12-04T14:15:34;23.40;;;12.60;;
6412;SDS011;3239;48.714;9.472;2022-12-04T14:20:36;26.10;;;14.03;;
6412;SDS011;3239;48.714;9.472;2022-12-04T14:23:08;21.97;;;12.87;;
6412;SDS011;3239;48.714;9.472;2022-12-04T14:25:58;26.37;;;13.87;;
6412;SDS011;3239;48.714;9.472;2022-12-04T14:33:54;28.43;;;14.17;;
6412;SDS011;3239;48.714;9.472;2022-12-04T14:36:45;29.17;;;14.70;;
6412;SDS011;3239;48.714;9.472;2022-12-04T14:39:28;29.20;;;14.47;;
6412;SDS011;3239;48.714;9.472;2022-12-04T14:42:19;32.00;;;15.47;;
6412;SDS011;3239;48.714;9.472;2022-12-04T14:44:58;31.87;;;15.13;;
6412;SDS011;3239;48.714;9.472;2022-12-04T14:47:37;24.37;;;13.80;;
6412;SDS011;3239;48.714;9.472;2022-12-04T14:53:43;26.83;;;14.17;;
6412;SDS011;3239;48.714;9.472;2022-12-04T14:59:47;23.80;;;14.77;;
6412;SDS011;3239;48.714;9.472;2022-12-04T15:02:37;27.30;;;14.13;;
6412;SDS011;3239;48.714;9.472;2022-12-04T15:05:09;33.53;;;16.10;;
6412;SDS011;3239;48.714;9.472;2022-12-04T15:07:47;37.00;;;17.13;;
6412;SDS011;3239;48.714;9.472;2022-12-04T15:10:26;29.53;;;15.30;;
6412;SDS011;3239;48.714;9.472;2022-12-04T15:13:30;33.47;;;15.23;;
6412;SDS011;3239;48.714;9.472;2022-12-04T15:16:03;24.40;;;14.20;;
6412;SDS011;3239;48.714;9.472;2022-12-04T15:18:33;30.63;;;16.13;;
6412;SDS011;3239;48.714;9.472;2022-12-04T15:20:59;26.57;;;14.97;;
6412;SDS011;3239;48.714;9.472;2022-12-04T15:23:34;27.10;;;14.80;;
6412;SDS011;3239;48.714;9.472;2022-12-04T15:26:06;32.53;;;15.07;;
6412;SDS011;3239;48.714;9.472;2022-12-04T15:31:39;26.53;;;14.47;;
6412;SDS011;3239;48.714;9.472;2022-12-04T15:34:14;29.33;;;15.03;;
6412;SDS011;3239;48.714;9.472;2022-12-04T15:36:48;28.40;;;15.03;;
6412;SDS011;3239;48.714;9.472;2022-12-04T15:39:21;29.50;;;13.43;;
6412;SDS011;3239;48.714;9.472;2022-12-04T15:41:50;30.73;;;14.50;;
6412;SDS011;3239;48.714;9.472;2022-12-04T15:44:30;29.87;;;14.50;;
6412;SDS011;3239;48.714;9.472;2022-12-04T15:46:59;27.23;;;13.13;;
6412;SDS011;3239;48.714;9.472;2022-12-04T15:49:38;29.90;;;15.03;;
6412;SDS011;3239;48.714;9.472;2022-12-04T15:52:15;33.40;;;14.90;;
6412;SDS011;3239;48.714;9.472;2022-12-04T15:54:51;30.27;;;15.30;;
6412;SDS011;3239;48.714;9.472;2022-12-04T15:57:28;30.67;;;14.13;;
6412;SDS011;3239;48.714;9.472;2022-12-04T16:00:06;29.20;;;14.07;;
6412;SDS011;3239;48.714;9.472;2022-12-04T16:02:45;27.87;;;14.23;;
6412;SDS011;3239;48.714;9.472;2022-12-04T16:05:13;29.23;;;13.90;;
6412;SDS011;3239;48.714;9.472;2022-12-04T16:10:25;28.00;;;14.60;;
6412;SDS011;3239;48.714;9.472;2022-12-04T16:13:00;33.53;;;15.60;;
6412;SDS011;3239;48.714;9.472;2022-12-04T16:15:39;39.13;;;17.27;;
6412;SDS011;3239;48.714;9.472;2022-12-04T16:18:08;38.67;;;17.20;;
6412;SDS011;3239;48.714;9.472;2022-12-04T16:20:38;33.83;;;15.20;;
6412;SDS011;3239;48.714;9.472;2022-12-04T16:23:04;34.53;;;16.53;;
6412;SDS011;3239;48.714;9.472;2022-12-04T16:25:30;32.17;;;15.00;;
6412;SDS011;3239;48.714;9.472;2022-12-04T16:28:00;35.07;;;15.80;;
6412;SDS011;3239;48.714;9.472;2022-12-04T16:30:26;36.17;;;17.23;;
6412;SDS011;3239;48.714;9.472;2022-12-04T16:32:55;45.57;;;18.63;;
6412;SDS011;3239;48.714;9.472;2022-12-04T16:35:21;43.67;;;20.33;;
6412;SDS011;3239;48.714;9.472;2022-12-04T16:37:46;41.13;;;17.50;;
6412;SDS011;3239;48.714;9.472;2022-12-04T16:40:13;32.43;;;15.50;;
6412;SDS011;3239;48.714;9.472;2022-12-04T16:42:39;39.30;;;15.60;;
6412;SDS011;3239;48.714;9.472;2022-12-04T16:47:57;33.63;;;17.10;;
6412;SDS011;3239;48.714;9.472;2022-12-04T16:50:23;36.80;;;18.80;;
6412;SDS011;3239;48.714;9.472;2022-12-04T16:52:51;34.63;;;17.40;;
6412;SDS011;3239;48.714;9.472;2022-12-04T16:55:18;35.67;;;16.40;;
6412;SDS011;3239;48.714;9.472;2022-12-04T16:57:48;37.50;;;18.10;;
6412;SDS011;3239;48.714;9.472;2022-12-04T17:00:15;35.77;;;16.10;;
6412;SDS011;3239;48.714;9.472;2022-12-04T17:02:42;39.60;;;19.23;;
6412;SDS011;3239;48.714;9.472;2022-12-04T17:05:19;40.00;;;17.77;;
6412;SDS011;3239;48.714;9.472;2022-12-04T17:07:47;35.27;;;17.30;;
6412;SDS011;3239;48.714;9.472;2022-12-04T17:10:14;42.37;;;19.47;;
6412;SDS011;3239;48.714;9.472;2022-12-04T17:12:40;39.73;;;18.03;;
6412;SDS011;3239;48.714;9.472;2022-12-04T17:15:07;44.30;;;18.60;;
6412;SDS011;3239;48.714;9.472;2022-12-04T17:17:34;41.20;;;17.43;;
6412;SDS011;3239;48.714;9.472;2022-12-04T17:20:00;43.30;;;17.27;;
6412;SDS011;3239;48.714;9.472;2022-12-04T17:22:27;52.17;;;20.13;;
6412;SDS011;3239;48.714;9.472;2022-12-04T17:24:55;52.60;;;18.10;;